createdAt,value
2022-12-27T00:02:21.165Z,3.41
2022-12-27T00:04:47.577Z,3.39
2022-12-27T00:07:14.201Z,3.41
2022-12-27T00:09:40.599Z,3.34
2022-12-27T00:12:07.131Z,3.40
2022-12-27T00:14:33.500Z,3.39
2022-12-27T00:17:00.279Z,3.42
2022-12-27T00:19:26.627Z,3.42
2022-12-27T00:21:54.162Z,3.44
2022-12-27T00:24:20.545Z,3.42
2022-12-27T00:26:46.908Z,3.39
2022-12-27T00:29:13.347Z,3.42
2022-12-27T00:31:40.223Z,3.44
2022-12-27T00:34:07.844Z,3.43
2022-12-27T00:36:34.875Z,3.44
2022-12-27T00:39:01.610Z,3.48
2022-12-27T00:41:28.461Z,3.44
2022-12-27T00:43:55.115Z,3.40
2022-12-27T00:46:21.683Z,3.40
2022-12-27T00:48:48.117Z,3.42
2022-12-27T00:51:22.947Z,3.43
2022-12-27T00:53:50.687Z,3.39
2022-12-27T00:56:23.422Z,3.40
2022-12-27T00:59:00.460Z,3.42
2022-12-27T01:01:29.213Z,3.42
2022-12-27T01:03:56.333Z,3.41
2022-12-27T01:06:28.683Z,3.38
2022-12-27T01:08:56.193Z,3.32
2022-12-27T01:11:23.084Z,3.30
2022-12-27T01:13:49.469Z,3.25
2022-12-27T01:16:18.890Z,3.30
2022-12-27T01:18:45.891Z,3.24
2022-12-27T01:21:14.875Z,3.22
2022-12-27T01:23:42.132Z,3.22
2022-12-27T01:26:12.405Z,3.20
2022-12-27T01:28:39.127Z,3.21
2022-12-27T01:31:12.148Z,3.24
2022-12-27T01:33:39.087Z,3.19
2022-12-27T01:36:13.159Z,3.17
2022-12-27T01:38:39.736Z,3.15
2022-12-27T01:41:26.145Z,3.14
2022-12-27T01:43:52.510Z,3.14
2022-12-27T01:46:18.987Z,3.13
2022-12-27T01:48:46.066Z,3.14
2022-12-27T01:51:12.622Z,3.14
2022-12-27T01:53:46.527Z,3.19
2022-12-27T01:56:21.449Z,3.15
2022-12-27T01:58:59.564Z,3.13
2022-12-27T02:01:47.774Z,3.15
2022-12-27T02:04:20.580Z,3.16
2022-12-27T02:06:48.110Z,3.16
2022-12-27T02:09:35.171Z,3.17
2022-12-27T02:12:05.413Z,3.20
2022-12-27T02:14:39.891Z,3.23
2022-12-27T02:17:10.633Z,3.29
2022-12-27T02:19:57.228Z,3.33
2022-12-27T02:23:06.801Z,3.41
2022-12-27T02:25:51.418Z,3.50
2022-12-27T02:28:33.453Z,3.58
2022-12-27T02:31:07.810Z,3.67
2022-12-27T02:33:38.779Z,3.69
2022-12-27T02:36:10.202Z,3.72
2022-12-27T02:38:40.409Z,3.75
2022-12-27T02:41:28.273Z,3.77
2022-12-27T02:44:14.956Z,3.72
2022-12-27T02:47:00.767Z,3.75
2022-12-27T02:49:54.567Z,3.76
2022-12-27T02:53:04.545Z,3.76
2022-12-27T02:56:10.218Z,3.69
2022-12-27T02:58:39.333Z,3.60
2022-12-27T03:01:33.552Z,3.61
2022-12-27T03:04:15.237Z,3.62
2022-12-27T03:06:56.562Z,3.51
2022-12-27T03:10:00.575Z,3.53
2022-12-27T03:12:57.583Z,3.54
2022-12-27T03:15:45.424Z,3.52
2022-12-27T03:18:18.171Z,3.57
2022-12-27T03:21:06.170Z,3.52
2022-12-27T03:23:52.961Z,3.53
2022-12-27T03:26:19.673Z,3.53
2022-12-27T03:29:06.880Z,3.50
2022-12-27T03:31:57.204Z,3.55
2022-12-27T03:34:32.179Z,3.56
2022-12-27T03:37:39.983Z,3.62
2022-12-27T03:40:22.044Z,3.62
2022-12-27T03:43:13.632Z,3.69
2022-12-27T03:46:13.910Z,3.75
2022-12-27T03:48:51.836Z,3.78
2022-12-27T03:51:23.234Z,3.75
2022-12-27T03:53:54.215Z,3.73
2022-12-27T03:56:21.258Z,3.69
2022-12-27T03:58:47.944Z,3.68
2022-12-27T04:01:14.512Z,3.63
2022-12-27T04:03:41.007Z,3.61
2022-12-27T04:06:07.402Z,3.59
2022-12-27T04:08:52.041Z,3.54
2022-12-27T04:11:36.779Z,3.51
2022-12-27T04:14:21.642Z,3.46
2022-12-27T04:17:06.364Z,3.45
2022-12-27T04:19:51.206Z,3.46
2022-12-27T04:22:35.912Z,3.45
2022-12-27T04:25:20.651Z,3.45
2022-12-27T04:28:05.519Z,3.43
2022-12-27T04:30:50.453Z,3.41
2022-12-27T04:33:35.737Z,3.39
2022-12-27T04:36:06.205Z,3.38
2022-12-27T04:38:32.975Z,3.35
2022-12-27T04:41:18.076Z,3.35
2022-12-27T04:44:02.792Z,3.34
2022-12-27T04:46:47.607Z,3.36
2022-12-27T04:49:43.956Z,3.35
2022-12-27T04:52:35.372Z,3.36
2022-12-27T04:55:16.392Z,3.35
2022-12-27T04:57:42.863Z,3.33
2022-12-27T05:00:28.183Z,3.30
2022-12-27T05:02:55.006Z,3.30
2022-12-27T05:05:22.147Z,3.33
2022-12-27T05:08:07.593Z,3.33
2022-12-27T05:10:52.838Z,3.30
2022-12-27T05:13:37.609Z,3.30
2022-12-27T05:16:04.569Z,3.29
2022-12-27T05:18:31.245Z,3.27
2022-12-27T05:21:05.275Z,3.31
2022-12-27T05:23:52.083Z,3.30
2022-12-27T05:26:23.130Z,3.31
2022-12-27T05:28:52.294Z,3.33
2022-12-27T05:31:19.865Z,3.25
2022-12-27T05:33:46.615Z,3.17
2022-12-27T05:36:13.116Z,3.18
2022-12-27T05:38:39.686Z,3.22
2022-12-27T05:41:06.112Z,3.24
2022-12-27T05:43:32.871Z,3.25
2022-12-27T05:46:09.008Z,3.30
2022-12-27T05:48:35.980Z,3.31
2022-12-27T05:51:11.887Z,3.31
2022-12-27T05:53:38.362Z,3.28
2022-12-27T05:56:05.595Z,3.29
2022-12-27T05:58:32.546Z,3.25
2022-12-27T06:01:00.155Z,3.25
2022-12-27T06:03:27.240Z,3.25
2022-12-27T06:06:00.600Z,3.30
2022-12-27T06:08:27.489Z,3.28
2022-12-27T06:11:03.143Z,3.33
2022-12-27T06:13:29.906Z,3.30
2022-12-27T06:15:58.765Z,3.34
2022-12-27T06:18:25.167Z,3.33
2022-12-27T06:20:51.493Z,3.34
2022-12-27T06:23:17.873Z,3.35
2022-12-27T06:25:44.394Z,3.34
2022-12-27T06:28:10.814Z,3.35
2022-12-27T06:30:37.199Z,3.35
2022-12-27T06:33:03.748Z,3.32
2022-12-27T06:35:30.148Z,3.32
2022-12-27T06:37:56.479Z,3.31
2022-12-27T06:40:22.840Z,3.33
2022-12-27T06:42:49.252Z,3.30
2022-12-27T06:45:15.640Z,3.30
2022-12-27T06:47:41.987Z,3.27
2022-12-27T06:50:08.729Z,3.32
2022-12-27T06:52:35.101Z,3.30
2022-12-27T06:55:01.517Z,3.31
2022-12-27T06:57:27.881Z,3.29
2022-12-27T06:59:54.361Z,3.29
2022-12-27T07:02:21.010Z,3.30
2022-12-27T07:04:47.544Z,3.31
2022-12-27T07:07:15.975Z,3.28
2022-12-27T07:09:42.583Z,3.30
2022-12-27T07:12:09.007Z,3.30
2022-12-27T07:14:35.557Z,3.30
2022-12-27T07:17:01.985Z,3.31
2022-12-27T07:19:28.297Z,3.29
2022-12-27T07:21:54.690Z,3.29
2022-12-27T07:24:21.087Z,3.28
2022-12-27T07:26:47.537Z,3.32
2022-12-27T07:29:14.032Z,3.31
2022-12-27T07:31:40.753Z,3.31
2022-12-27T07:34:07.117Z,3.31
2022-12-27T07:36:37.114Z,3.34
2022-12-27T07:39:04.677Z,3.34
2022-12-27T07:41:31.114Z,3.31
2022-12-27T07:43:57.763Z,3.29
2022-12-27T07:46:25.913Z,3.35
2022-12-27T07:48:56.995Z,3.35
2022-12-27T07:51:25.113Z,3.33
2022-12-27T07:53:51.771Z,3.31
2022-12-27T07:56:25.860Z,3.28
2022-12-27T07:58:54.831Z,3.29
2022-12-27T08:01:22.545Z,3.27
2022-12-27T08:03:49.498Z,3.25
2022-12-27T08:06:29.950Z,3.33
2022-12-27T08:08:59.027Z,3.29
2022-12-27T08:11:28.302Z,3.27
2022-12-27T08:13:54.695Z,3.26
2022-12-27T08:16:25.457Z,3.31
2022-12-27T08:18:53.064Z,3.31
2022-12-27T08:21:19.465Z,3.30
2022-12-27T08:23:45.884Z,3.35
2022-12-27T08:26:12.688Z,3.34
2022-12-27T08:28:39.189Z,3.38
2022-12-27T08:31:11.243Z,3.41
2022-12-27T08:33:38.495Z,3.43
2022-12-27T08:36:28.528Z,3.45
2022-12-27T08:38:54.848Z,3.48
2022-12-27T08:41:22.308Z,3.46
2022-12-27T08:43:48.785Z,3.44
2022-12-27T08:46:15.410Z,3.43
2022-12-27T08:48:41.940Z,3.46
2022-12-27T08:51:12.563Z,3.52
2022-12-27T08:53:40.179Z,3.49
2022-12-27T08:56:07.047Z,3.48
2022-12-27T08:58:33.397Z,3.47
2022-12-27T09:01:10.385Z,3.52
2022-12-27T09:03:37.145Z,3.50
2022-12-27T09:06:33.175Z,3.52
2022-12-27T09:09:01.365Z,3.53
2022-12-27T09:11:33.322Z,3.59
2022-12-27T09:14:03.249Z,3.57
2022-12-27T09:16:30.299Z,3.52
2022-12-27T09:18:59.011Z,3.56
2022-12-27T09:21:27.180Z,3.62
2022-12-27T09:23:54.326Z,3.62
2022-12-27T09:26:26.439Z,3.65
2022-12-27T09:28:54.683Z,3.58
2022-12-27T09:31:22.581Z,3.64
2022-12-27T09:33:49.414Z,3.67
2022-12-27T09:36:18.276Z,3.69
2022-12-27T09:38:45.827Z,3.76
2022-12-27T09:42:11.406Z,3.80
2022-12-27T09:44:26.519Z,3.88
2022-12-27T09:47:01.212Z,3.89
2022-12-27T09:49:33.367Z,3.90
2022-12-27T09:52:11.112Z,3.92
2022-12-27T09:54:40.622Z,3.93
2022-12-27T09:57:20.394Z,3.96
2022-12-27T09:59:51.546Z,4.01
2022-12-27T10:02:25.681Z,4.01
2022-12-27T10:05:19.585Z,3.99
2022-12-27T10:07:58.781Z,4.09
2022-12-27T10:10:42.451Z,4.10
2022-12-27T10:13:53.220Z,4.13
2022-12-27T10:16:25.220Z,4.09
2022-12-27T10:19:21.073Z,4.15
2022-12-27T10:21:56.540Z,4.24
2022-12-27T10:24:33.363Z,4.33
2022-12-27T10:26:59.790Z,4.27
2022-12-27T10:29:27.921Z,4.33
2022-12-27T10:31:54.486Z,4.41
2022-12-27T10:34:24.638Z,4.38
2022-12-27T10:36:53.247Z,4.42
2022-12-27T10:39:32.424Z,4.54
2022-12-27T10:42:20.634Z,4.59
2022-12-27T10:44:47.007Z,4.58
2022-12-27T10:47:13.603Z,4.61
2022-12-27T10:49:42.859Z,4.69
2022-12-27T10:52:23.226Z,4.78
2022-12-27T10:54:53.290Z,4.81
2022-12-27T10:57:33.996Z,4.85
2022-12-27T11:00:19.152Z,4.91
2022-12-27T11:03:03.908Z,4.95
2022-12-27T11:05:33.039Z,4.98
2022-12-27T11:08:01.317Z,5.04
2022-12-27T11:10:31.468Z,5.14
2022-12-27T11:13:06.500Z,5.20
2022-12-27T11:15:44.633Z,5.22
2022-12-27T11:18:17.190Z,5.24
2022-12-27T11:20:59.188Z,5.35
2022-12-27T11:23:40.961Z,5.41
2022-12-27T11:26:07.535Z,5.37
2022-12-27T11:28:38.845Z,5.47
2022-12-27T11:31:09.878Z,5.48
2022-12-27T11:33:41.080Z,5.53
2022-12-27T11:36:11.527Z,5.61
2022-12-27T11:38:40.031Z,5.63
2022-12-27T11:41:20.823Z,5.69
2022-12-27T11:43:58.886Z,5.67
2022-12-27T11:46:44.251Z,5.70
2022-12-27T11:49:28.320Z,5.76
2022-12-27T11:52:16.554Z,5.81
2022-12-27T11:55:18.291Z,5.87
2022-12-27T11:58:28.084Z,5.98
2022-12-27T12:01:32.286Z,6.06
2022-12-27T12:04:08.108Z,6.09
2022-12-27T12:07:03.027Z,6.23
2022-12-27T12:10:07.053Z,6.29
2022-12-27T12:12:45.376Z,6.40
2022-12-27T12:15:41.813Z,6.45
2022-12-27T12:18:27.680Z,6.48
2022-12-27T12:21:13.178Z,6.53
2022-12-27T12:24:17.190Z,6.69
2022-12-27T12:27:02.476Z,6.73
2022-12-27T12:30:13.864Z,6.84
2022-12-27T12:32:59.011Z,6.89
2022-12-27T12:35:40.343Z,7.08
2022-12-27T12:38:21.196Z,7.14
2022-12-27T12:41:14.792Z,7.16
2022-12-27T12:43:50.367Z,7.22
2022-12-27T12:46:37.649Z,7.18
2022-12-27T12:49:32.616Z,7.12
2022-12-27T12:52:29.181Z,7.16
2022-12-27T12:55:26.618Z,7.08
2022-12-27T12:58:15.289Z,7.03
2022-12-27T13:01:10.361Z,6.98
2022-12-27T13:04:03.572Z,6.88
2022-12-27T13:06:51.682Z,6.88
2022-12-27T13:09:43.924Z,6.82
2022-12-27T13:12:35.581Z,6.83
2022-12-27T13:15:20.324Z,6.84
2022-12-27T13:18:10.909Z,6.81
2022-12-27T13:21:00.378Z,6.81
2022-12-27T13:23:52.543Z,6.82
2022-12-27T13:26:31.181Z,6.81
2022-12-27T13:29:00.752Z,6.82
2022-12-27T13:31:45.984Z,6.82
2022-12-27T13:34:37.567Z,6.91
2022-12-27T13:37:21.638Z,6.91
2022-12-27T13:40:06.187Z,7.07
2022-12-27T13:43:15.327Z,7.12
2022-12-27T13:46:08.803Z,7.12
2022-12-27T13:49:06.232Z,7.19
2022-12-27T13:51:50.733Z,7.19
2022-12-27T13:54:38.779Z,7.21
2022-12-27T13:57:23.612Z,7.26
2022-12-27T14:00:14.588Z,7.20
2022-12-27T14:03:14.514Z,7.13
2022-12-27T14:05:40.815Z,7.06
2022-12-27T14:08:45.975Z,7.14
2022-12-27T14:11:32.734Z,7.10
2022-12-27T14:14:00.843Z,7.10
2022-12-27T14:17:00.482Z,7.06
2022-12-27T14:19:49.863Z,7.04
2022-12-27T14:22:25.363Z,7.00
2022-12-27T14:25:07.943Z,6.98
2022-12-27T14:28:05.331Z,6.89
2022-12-27T14:31:23.035Z,6.86
2022-12-27T14:34:09.778Z,6.88
2022-12-27T14:36:57.450Z,6.85
2022-12-27T14:40:01.459Z,6.82
2022-12-27T14:43:02.033Z,6.85
2022-12-27T14:45:49.978Z,6.83
2022-12-27T14:48:46.791Z,6.78
2022-12-27T14:54:32.667Z,6.81
2022-12-27T14:57:39.042Z,6.82
2022-12-27T15:00:17.163Z,6.79
2022-12-27T15:02:50.979Z,6.81
2022-12-27T15:05:42.921Z,6.83
2022-12-27T15:08:35.804Z,6.83
2022-12-27T15:11:26.313Z,6.79
2022-12-27T15:14:25.621Z,6.83
2022-12-27T15:17:14.458Z,6.87
2022-12-27T15:19:52.782Z,6.74
2022-12-27T15:22:48.159Z,6.81
2022-12-27T15:25:47.206Z,6.84
2022-12-27T15:28:32.885Z,6.79
2022-12-27T15:31:29.400Z,6.77
2022-12-27T15:34:33.220Z,6.71
2022-12-27T15:36:59.860Z,6.73
2022-12-27T15:39:35.825Z,6.72
2022-12-27T15:42:31.617Z,6.70
2022-12-27T15:45:18.150Z,6.70
2022-12-27T15:47:47.542Z,6.72
2022-12-27T15:50:23.156Z,6.65
2022-12-27T15:53:12.827Z,6.71
2022-12-27T15:56:03.201Z,6.68
2022-12-27T15:58:30.102Z,6.65
2022-12-27T16:01:21.853Z,6.68
2022-12-27T16:03:53.027Z,6.67
2022-12-27T16:06:34.527Z,6.69
2022-12-27T16:09:23.325Z,6.67
2022-12-27T16:12:09.742Z,6.65
2022-12-27T16:14:39.272Z,6.69
2022-12-27T16:17:34.468Z,6.69
2022-12-27T16:20:11.595Z,6.59
2022-12-27T16:22:45.206Z,6.63
2022-12-27T16:25:36.180Z,6.63
2022-12-27T16:28:07.792Z,6.62
2022-12-27T16:30:50.915Z,6.68
2022-12-27T16:33:26.128Z,6.69
2022-12-27T16:36:15.210Z,6.65
2022-12-27T16:38:57.258Z,6.70
2022-12-27T16:41:58.557Z,6.66
2022-12-27T16:44:24.941Z,6.60
2022-12-27T16:47:23.687Z,6.64
2022-12-27T16:49:55.651Z,6.61
2022-12-27T16:52:58.732Z,6.60
2022-12-27T16:56:02.678Z,6.64
2022-12-27T16:58:29.016Z,6.58
2022-12-27T17:00:57.624Z,6.57
2022-12-27T17:03:34.300Z,6.60
2022-12-27T17:06:31.148Z,6.61
2022-12-27T17:09:07.919Z,6.58
2022-12-27T17:12:04.990Z,6.61
2022-12-27T17:14:38.139Z,6.58
2022-12-27T17:17:16.006Z,6.52
2022-12-27T17:19:48.894Z,6.57
2022-12-27T17:22:17.039Z,6.50
2022-12-27T17:24:45.555Z,6.47
2022-12-27T17:27:19.650Z,6.48
2022-12-27T17:30:04.317Z,6.48
2022-12-27T17:32:58.093Z,6.50
2022-12-27T17:35:58.067Z,6.49
2022-12-27T17:38:43.254Z,6.49
2022-12-27T17:41:47.154Z,6.49
2022-12-27T17:44:38.754Z,6.48
2022-12-27T17:47:30.165Z,6.47
2022-12-27T17:50:03.592Z,6.47
2022-12-27T17:52:48.839Z,6.42
2022-12-27T17:55:39.028Z,6.45
2022-12-27T17:58:12.924Z,6.41
2022-12-27T18:00:59.447Z,6.43
2022-12-27T18:03:44.460Z,6.44
2022-12-27T18:06:17.888Z,6.42
2022-12-27T18:08:47.865Z,6.40
2022-12-27T18:11:18.829Z,6.39
2022-12-27T18:13:55.751Z,6.36
2022-12-27T18:16:35.833Z,6.36
2022-12-27T18:19:03.080Z,6.33
2022-12-27T18:21:30.690Z,6.31
2022-12-27T18:23:57.238Z,6.28
2022-12-27T18:26:41.913Z,6.24
2022-12-27T18:29:11.843Z,6.14
2022-12-27T18:31:49.515Z,6.18
2022-12-27T18:34:39.999Z,6.17
2022-12-27T18:37:10.854Z,6.14
2022-12-27T18:39:52.427Z,6.14
2022-12-27T18:42:32.668Z,6.15
2022-12-27T18:45:06.415Z,6.09
2022-12-27T18:47:40.017Z,6.09
2022-12-27T18:50:17.148Z,6.05
2022-12-27T18:52:45.380Z,6.02
2022-12-27T18:55:17.858Z,6.04
2022-12-27T18:57:45.209Z,5.98
2022-12-27T19:00:11.748Z,5.99
2022-12-27T19:02:38.175Z,6.02
2022-12-27T19:05:19.875Z,6.00
2022-12-27T19:07:54.110Z,5.90
2022-12-27T19:10:27.001Z,5.94
2022-12-27T19:12:54.882Z,5.91
2022-12-27T19:15:28.382Z,5.93
2022-12-27T19:18:02.152Z,5.91
2022-12-27T19:20:34.905Z,5.86
2022-12-27T19:23:05.228Z,5.87
2022-12-27T19:25:38.407Z,5.85
2022-12-27T19:28:10.632Z,5.80
2022-12-27T19:30:41.906Z,5.82
2022-12-27T19:33:25.598Z,5.77
2022-12-27T19:35:53.125Z,5.74
2022-12-27T19:38:26.122Z,5.75
2022-12-27T19:41:02.809Z,5.72
2022-12-27T19:43:40.200Z,5.65
2022-12-27T19:46:06.856Z,5.63
2022-12-27T19:48:33.313Z,5.59
2022-12-27T19:51:00.030Z,5.62
2022-12-27T19:53:38.423Z,5.62
2022-12-27T19:56:07.650Z,5.57
2022-12-27T19:58:34.393Z,5.47
2022-12-27T20:01:01.186Z,5.49
2022-12-27T20:03:27.761Z,5.48
2022-12-27T20:06:11.280Z,5.53
2022-12-27T20:08:43.869Z,5.49
2022-12-27T20:11:15.639Z,5.48
2022-12-27T20:13:46.800Z,5.47
2022-12-27T20:16:15.763Z,5.45
2022-12-27T20:18:43.187Z,5.43
2022-12-27T20:21:15.050Z,5.43
2022-12-27T20:23:41.808Z,5.40
2022-12-27T20:26:09.029Z,5.39
2022-12-27T20:28:35.805Z,5.41
2022-12-27T20:31:10.188Z,5.46
2022-12-27T20:33:36.834Z,5.43
2022-12-27T20:36:04.159Z,5.40
2022-12-27T20:38:31.949Z,5.39
2022-12-27T20:41:09.674Z,5.40
2022-12-27T20:43:37.063Z,5.42
2022-12-27T20:46:08.220Z,5.48
2022-12-27T20:48:44.336Z,5.45
2022-12-27T20:51:15.065Z,5.45
2022-12-27T20:53:42.537Z,5.38
2022-12-27T20:56:09.114Z,5.40
2022-12-27T20:58:35.879Z,5.39
2022-12-27T21:01:10.510Z,5.40
2022-12-27T21:03:37.556Z,5.35
2022-12-27T21:06:07.367Z,5.36
2022-12-27T21:08:38.685Z,5.33
2022-12-27T21:11:12.798Z,5.32
2022-12-27T21:13:40.680Z,5.33
2022-12-27T21:16:12.044Z,5.34
2022-12-27T21:18:38.501Z,5.34
2022-12-27T21:21:07.255Z,5.41
2022-12-27T21:23:34.593Z,5.41
2022-12-27T21:26:13.358Z,5.38
2022-12-27T21:28:39.921Z,5.37
2022-12-27T21:31:07.358Z,5.39
2022-12-27T21:33:35.953Z,5.37
2022-12-27T21:36:06.010Z,5.41
2022-12-27T21:38:32.816Z,5.38
2022-12-27T21:41:01.797Z,5.40
2022-12-27T21:43:29.144Z,5.38
2022-12-27T21:45:56.940Z,5.38
2022-12-27T21:48:24.829Z,5.41
2022-12-27T21:50:51.335Z,5.42
2022-12-27T21:53:19.234Z,5.43
2022-12-27T21:55:46.131Z,5.39
2022-12-27T21:58:12.774Z,5.44
2022-12-27T22:00:40.147Z,5.42
2022-12-27T22:03:06.922Z,5.45
2022-12-27T22:05:33.578Z,5.42
2022-12-27T22:07:59.961Z,5.44
2022-12-27T22:10:26.483Z,5.44
2022-12-27T22:12:52.938Z,5.44
2022-12-27T22:15:19.371Z,5.41
2022-12-27T22:17:45.756Z,5.44
2022-12-27T22:20:12.241Z,5.44
2022-12-27T22:22:38.603Z,5.47
2022-12-27T22:25:05.476Z,5.50
2022-12-27T22:27:31.802Z,5.52
2022-12-27T22:29:58.195Z,5.51
2022-12-27T22:32:24.701Z,5.55
2022-12-27T22:34:51.036Z,5.51
2022-12-27T22:37:17.400Z,5.50
2022-12-27T22:39:43.739Z,5.54
2022-12-27T22:42:10.178Z,5.54
2022-12-27T22:44:36.515Z,5.58
2022-12-27T22:49:49.337Z,5.62
2022-12-27T22:52:15.935Z,5.59
2022-12-27T22:55:02.983Z,5.63
2022-12-27T22:57:28.750Z,5.65
2022-12-27T22:59:55.136Z,5.67
2022-12-27T23:02:21.631Z,5.65
2022-12-27T23:04:48.303Z,5.64
2022-12-27T23:07:19.814Z,5.69
2022-12-27T23:09:46.579Z,5.71
2022-12-27T23:12:13.701Z,5.77
2022-12-27T23:14:40.283Z,5.75
2022-12-27T23:17:06.609Z,5.77
2022-12-27T23:19:33.104Z,5.81
2022-12-27T23:21:59.484Z,5.82
2022-12-27T23:24:25.911Z,5.81
2022-12-27T23:26:52.565Z,5.80
2022-12-27T23:29:18.953Z,5.75
2022-12-27T23:31:54.391Z,5.80
2022-12-27T23:34:27.608Z,5.76
2022-12-27T23:36:55.416Z,5.75
2022-12-27T23:39:21.770Z,5.69
2022-12-27T23:41:48.216Z,5.66
2022-12-27T23:44:14.627Z,5.67
2022-12-27T23:46:41.041Z,5.68
2022-12-27T23:49:08.209Z,5.70
2022-12-27T23:51:34.635Z,5.75
2022-12-27T23:54:01.008Z,5.72
2022-12-27T23:56:32.595Z,5.75
2022-12-27T23:59:00.920Z,5.73
